Anderson, California
Current Conditions -  °F | °C
As of 6:53 PM on Monday 20 Oct 2014 (Local Time) from KRDD Reporting Station
Light Rain Light Rain  
Wind Chill: 57°   Ceiling: 9500
Heat Index: 57°   Visibility: 10mi
Dew Point: 52°   Wind: 6mph
Humidity: 83%   Direction: 350°N
Pressure: 29.88"   Gusts: NA
Location:  40.45°N, 122.3°W
Report Text: KRDD 210153Z 35005KT 10SM -RA SCT060 OVC095 14/11 A2988 RMK AO2 LTG DSNT N AND NE RAE30B37 TSB09E24 SLP115 P0010 T01390111
Loading
Personal Weather Stations






























Interactive Weather Map New forecast layout! Learn more

10-Day Weather Forecast

Advertisements
Track Severe Weather on mobile